sensor_id;sensor_type;location;lat;lon;timestamp;pressure;altitude;pressure_sealevel;temperature;humidity
55187;BME280;55457;52.002;5.464;2023-04-06T00:00:30;101602.91;;;21.31;30.25
55187;BME280;55457;52.002;5.464;2023-04-06T00:02:55;101611.03;;;21.31;30.08
55187;BME280;55457;52.002;5.464;2023-04-06T00:05:21;101602.91;;;21.31;30.07
55187;BME280;55457;52.002;5.464;2023-04-06T00:07:47;101610.22;;;21.30;30.06
55187;BME280;55457;52.002;5.464;2023-04-06T00:10:13;101595.84;;;21.30;30.21
55187;BME280;55457;52.002;5.464;2023-04-06T00:12:38;101595.84;;;21.30;30.09
55187;BME280;55457;52.002;5.464;2023-04-06T00:15:03;101590.41;;;21.30;30.22
55187;BME280;55457;52.002;5.464;2023-04-06T00:17:30;101591.41;;;21.29;30.13
55187;BME280;55457;52.002;5.464;2023-04-06T00:19:55;101590.41;;;21.30;30.15
55187;BME280;55457;52.002;5.464;2023-04-06T00:22:21;101587.88;;;21.28;30.31
55187;BME280;55457;52.002;5.464;2023-04-06T00:24:46;101584.34;;;21.28;30.20
55187;BME280;55457;52.002;5.464;2023-04-06T00:27:11;101584.34;;;21.28;30.16
55187;BME280;55457;52.002;5.464;2023-04-06T00:29:36;101578.94;;;21.28;30.41
55187;BME280;55457;52.002;5.464;2023-04-06T00:32:02;101580.00;;;21.27;30.24
55187;BME280;55457;52.002;5.464;2023-04-06T00:34:27;101580.00;;;21.27;30.25
55187;BME280;55457;52.002;5.464;2023-04-06T00:36:52;101576.47;;;21.26;30.23
55187;BME280;55457;52.002;5.464;2023-04-06T00:39:17;101575.63;;;21.26;30.41
55187;BME280;55457;52.002;5.464;2023-04-06T00:41:45;101568.31;;;21.26;30.48
55187;BME280;55457;52.002;5.464;2023-04-06T00:44:10;101565.63;;;21.26;30.37
55187;BME280;55457;52.002;5.464;2023-04-06T00:46:36;101564.78;;;21.26;30.45
55187;BME280;55457;52.002;5.464;2023-04-06T00:49:01;101566.69;;;21.25;30.25
55187;BME280;55457;52.002;5.464;2023-04-06T00:51:27;101556.03;;;21.24;30.51
55187;BME280;55457;52.002;5.464;2023-04-06T00:53:52;101556.88;;;21.24;30.35
55187;BME280;55457;52.002;5.464;2023-04-06T00:56:17;101556.03;;;21.24;30.33
55187;BME280;55457;52.002;5.464;2023-04-06T00:58:43;101550.63;;;21.24;30.53
55187;BME280;55457;52.002;5.464;2023-04-06T01:01:08;101550.03;;;21.22;30.44
55187;BME280;55457;52.002;5.464;2023-04-06T01:03:33;101548.97;;;21.23;30.33
55187;BME280;55457;52.002;5.464;2023-04-06T01:05:58;101548.97;;;21.23;30.54
55187;BME280;55457;52.002;5.464;2023-04-06T01:08:24;101539.19;;;21.22;30.50
55187;BME280;55457;52.002;5.464;2023-04-06T01:10:49;101536.50;;;21.22;30.57
55187;BME280;55457;52.002;5.464;2023-04-06T01:13:15;101536.50;;;21.22;30.52
55187;BME280;55457;52.002;5.464;2023-04-06T01:15:40;101531.31;;;21.20;30.51
55187;BME280;55457;52.002;5.464;2023-04-06T01:18:07;101526.72;;;21.21;30.66
55187;BME280;55457;52.002;5.464;2023-04-06T01:20:33;101528.59;;;21.20;30.53
55187;BME280;55457;52.002;5.464;2023-04-06T01:22:59;101533.78;;;21.22;30.42
55187;BME280;55457;52.002;5.464;2023-04-06T01:25:24;101531.06;;;21.22;30.59
55187;BME280;55457;52.002;5.464;2023-04-06T01:27:49;101529.41;;;21.21;30.32
55187;BME280;55457;52.002;5.464;2023-04-06T01:30:15;101524.00;;;21.21;30.57
55187;BME280;55457;52.002;5.464;2023-04-06T01:32:42;101518.56;;;21.21;30.64
55187;BME280;55457;52.002;5.464;2023-04-06T01:35:07;101515.03;;;21.20;30.64
55187;BME280;55457;52.002;5.464;2023-04-06T01:37:32;101512.53;;;21.19;30.47
55187;BME280;55457;52.002;5.464;2023-04-06T01:39:58;101503.59;;;21.18;30.69
55187;BME280;55457;52.002;5.464;2023-04-06T01:42:23;101501.13;;;21.17;30.72
55187;BME280;55457;52.002;5.464;2023-04-06T01:44:48;101504.41;;;21.19;30.52
55187;BME280;55457;52.002;5.464;2023-04-06T01:47:14;101500.06;;;21.18;30.69
55187;BME280;55457;52.002;5.464;2023-04-06T01:49:39;101500.06;;;21.18;30.58
55187;BME280;55457;52.002;5.464;2023-04-06T01:52:04;101502.75;;;21.18;30.66
55187;BME280;55457;52.002;5.464;2023-04-06T01:54:30;101489.47;;;21.16;30.67
55187;BME280;55457;52.002;5.464;2023-04-06T01:56:55;101491.91;;;21.18;30.73
55187;BME280;55457;52.002;5.464;2023-04-06T01:59:20;101491.91;;;21.18;30.57
55187;BME280;55457;52.002;5.464;2023-04-06T02:01:45;101495.69;;;21.17;30.65
55187;BME280;55457;52.002;5.464;2023-04-06T02:04:11;101484.84;;;21.17;30.76
55187;BME280;55457;52.002;5.464;2023-04-06T02:06:36;101475.91;;;21.16;30.58
55187;BME280;55457;52.002;5.464;2023-04-06T02:09:01;101477.78;;;21.16;30.70
55187;BME280;55457;52.002;5.464;2023-04-06T02:11:26;101476.97;;;21.15;30.56
55187;BME280;55457;52.002;5.464;2023-04-06T02:13:51;101465.31;;;21.15;30.72
55187;BME280;55457;52.002;5.464;2023-04-06T02:16:17;101464.44;;;21.14;30.63
55187;BME280;55457;52.002;5.464;2023-04-06T02:18:42;101463.63;;;21.14;30.55
55187;BME280;55457;52.002;5.464;2023-04-06T02:21:07;101466.13;;;21.15;30.75
55187;BME280;55457;52.002;5.464;2023-04-06T02:23:32;101456.31;;;21.14;30.76
55187;BME280;55457;52.002;5.464;2023-04-06T02:25:57;101456.56;;;21.13;30.79
55187;BME280;55457;52.002;5.464;2023-04-06T02:28:23;101456.56;;;21.13;30.68
55187;BME280;55457;52.002;5.464;2023-04-06T02:30:48;101453.84;;;21.13;30.83
55187;BME280;55457;52.002;5.464;2023-04-06T02:33:13;101453.84;;;21.13;30.77
55187;BME280;55457;52.002;5.464;2023-04-06T02:35:38;101459.28;;;21.13;30.83
55187;BME280;55457;52.002;5.464;2023-04-06T02:38:03;101452.19;;;21.11;30.73
55187;BME280;55457;52.002;5.464;2023-04-06T02:40:29;101453.03;;;21.12;30.87
55187;BME280;55457;52.002;5.464;2023-04-06T02:42:54;101451.97;;;21.13;30.89
55187;BME280;55457;52.002;5.464;2023-04-06T02:45:19;101444.06;;;21.11;30.84
55187;BME280;55457;52.002;5.464;2023-04-06T02:47:45;101443.00;;;21.13;30.73
55187;BME280;55457;52.002;5.464;2023-04-06T02:50:10;101439.72;;;21.10;30.81
55187;BME280;55457;52.002;5.464;2023-04-06T02:52:35;101432.41;;;21.11;30.69
55187;BME280;55457;52.002;5.464;2023-04-06T02:55:01;101433.22;;;21.11;30.89
55187;BME280;55457;52.002;5.464;2023-04-06T02:57:26;101426.16;;;21.10;30.69
55187;BME280;55457;52.002;5.464;2023-04-06T02:59:51;101427.00;;;21.11;30.94
55187;BME280;55457;52.002;5.464;2023-04-06T03:02:16;101419.94;;;21.10;30.69
55187;BME280;55457;52.002;5.464;2023-04-06T03:04:42;101419.09;;;21.09;30.79
55187;BME280;55457;52.002;5.464;2023-04-06T03:07:07;101422.63;;;21.10;30.98
55187;BME280;55457;52.002;5.464;2023-04-06T03:09:32;101412.00;;;21.08;30.79
55187;BME280;55457;52.002;5.464;2023-04-06T03:11:58;101417.44;;;21.08;30.92
55187;BME280;55457;52.002;5.464;2023-04-06T03:14:23;101413.69;;;21.09;30.99
55187;BME280;55457;52.002;5.464;2023-04-06T03:16:49;101411.19;;;21.08;30.98
55187;BME280;55457;52.002;5.464;2023-04-06T03:19:14;101417.44;;;21.08;30.92
55187;BME280;55457;52.002;5.464;2023-04-06T03:21:40;101411.19;;;21.08;30.80
55187;BME280;55457;52.002;5.464;2023-04-06T03:24:06;101410.38;;;21.07;30.86
55187;BME280;55457;52.002;5.464;2023-04-06T03:26:31;101399.53;;;21.07;30.78
55187;BME280;55457;52.002;5.464;2023-04-06T03:28:56;101404.94;;;21.07;31.00
55187;BME280;55457;52.002;5.464;2023-04-06T03:31:22;101399.53;;;21.07;30.83
55187;BME280;55457;52.002;5.464;2023-04-06T03:33:47;101403.28;;;21.06;30.96
55187;BME280;55457;52.002;5.464;2023-04-06T03:36:12;101397.88;;;21.06;30.97
55187;BME280;55457;52.002;5.464;2023-04-06T03:38:37;101397.88;;;21.06;30.98
55187;BME280;55457;52.002;5.464;2023-04-06T03:41:03;101392.47;;;21.06;30.85
55187;BME280;55457;52.002;5.464;2023-04-06T03:43:28;101390.81;;;21.05;30.84
55187;BME280;55457;52.002;5.464;2023-04-06T03:45:53;101392.47;;;21.06;31.05
55187;BME280;55457;52.002;5.464;2023-04-06T03:48:18;101394.59;;;21.04;30.93
55187;BME280;55457;52.002;5.464;2023-04-06T03:50:43;101398.94;;;21.05;31.00
55187;BME280;55457;52.002;5.464;2023-04-06T03:53:09;101394.59;;;21.04;31.06
55187;BME280;55457;52.002;5.464;2023-04-06T03:55:34;101394.59;;;21.04;30.98
55187;BME280;55457;52.002;5.464;2023-04-06T03:57:59;101392.09;;;21.03;30.86
55187;BME280;55457;52.002;5.464;2023-04-06T04:00:25;101393.78;;;21.04;30.99
55187;BME280;55457;52.002;5.464;2023-04-06T04:02:50;101393.78;;;21.04;30.88
55187;BME280;55457;52.002;5.464;2023-04-06T04:05:16;101390.81;;;21.05;31.17
55187;BME280;55457;52.002;5.464;2023-04-06T04:07:41;101384.78;;;21.03;30.98
55187;BME280;55457;52.002;5.464;2023-04-06T04:10:06;101388.34;;;21.04;31.00
55187;BME280;55457;52.002;5.464;2023-04-06T04:12:31;101379.59;;;21.02;31.13
55187;BME280;55457;52.002;5.464;2023-04-06T04:14:56;101391.28;;;21.02;31.18
55187;BME280;55457;52.002;5.464;2023-04-06T04:17:22;101386.66;;;21.03;31.18
55187;BME280;55457;52.002;5.464;2023-04-06T04:19:47;101385.84;;;21.02;30.91
55187;BME280;55457;52.002;5.464;2023-04-06T04:22:12;101381.50;;;21.01;30.99
55187;BME280;55457;52.002;5.464;2023-04-06T04:24:37;101379.59;;;21.02;30.92
55187;BME280;55457;52.002;5.464;2023-04-06T04:27:02;101381.50;;;21.01;31.16
55187;BME280;55457;52.002;5.464;2023-04-06T04:29:28;101381.50;;;21.01;31.07
55187;BME280;55457;52.002;5.464;2023-04-06T04:31:53;101371.72;;;21.00;31.21
55187;BME280;55457;52.002;5.464;2023-04-06T04:34:18;101377.97;;;21.01;31.23
55187;BME280;55457;52.002;5.464;2023-04-06T04:36:50;101378.78;;;21.01;31.07
55187;BME280;55457;52.002;5.464;2023-04-06T04:39:15;101370.06;;;20.99;31.25
55187;BME280;55457;52.002;5.464;2023-04-06T04:41:40;101372.78;;;20.99;31.00
55187;BME280;55457;52.002;5.464;2023-04-06T04:44:05;101370.06;;;20.99;31.05
55187;BME280;55457;52.002;5.464;2023-04-06T04:46:31;101376.53;;;20.98;30.99
55187;BME280;55457;52.002;5.464;2023-04-06T04:48:56;101380.09;;;20.99;31.00
55187;BME280;55457;52.002;5.464;2023-04-06T04:51:21;101379.25;;;20.98;31.27
55187;BME280;55457;52.002;5.464;2023-04-06T04:53:46;101375.50;;;20.99;31.21
55187;BME280;55457;52.002;5.464;2023-04-06T04:56:11;101381.94;;;20.98;31.23
55187;BME280;55457;52.002;5.464;2023-04-06T04:58:37;101373.81;;;20.98;31.10
55187;BME280;55457;52.002;5.464;2023-04-06T05:01:02;101375.72;;;20.98;31.13
55187;BME280;55457;52.002;5.464;2023-04-06T05:03:27;101366.75;;;20.97;31.30
55187;BME280;55457;52.002;5.464;2023-04-06T05:05:52;101373.25;;;20.96;31.28
55187;BME280;55457;52.002;5.464;2023-04-06T05:08:18;101370.53;;;20.96;31.22
55187;BME280;55457;52.002;5.464;2023-04-06T05:10:43;101371.34;;;20.97;31.02
55187;BME280;55457;52.002;5.464;2023-04-06T05:13:09;101368.66;;;20.97;31.20
55187;BME280;55457;52.002;5.464;2023-04-06T05:15:35;101360.75;;;20.95;31.21
55187;BME280;55457;52.002;5.464;2023-04-06T05:18:02;101369.72;;;20.96;31.13
55187;BME280;55457;52.002;5.464;2023-04-06T05:20:28;101369.72;;;20.96;31.30
55187;BME280;55457;52.002;5.464;2023-04-06T05:22:53;101358.06;;;20.95;31.08
55187;BME280;55457;52.002;5.464;2023-04-06T05:25:18;101359.13;;;20.94;31.30
55187;BME280;55457;52.002;5.464;2023-04-06T05:27:43;101358.06;;;20.95;31.16
55187;BME280;55457;52.002;5.464;2023-04-06T05:30:09;101356.41;;;20.94;31.20
55187;BME280;55457;52.002;5.464;2023-04-06T05:32:34;101352.03;;;20.93;31.32
55187;BME280;55457;52.002;5.464;2023-04-06T05:35:00;101356.41;;;20.94;31.04
55187;BME280;55457;52.002;5.464;2023-04-06T05:37:25;101354.53;;;20.95;31.13
55187;BME280;55457;52.002;5.464;2023-04-06T05:39:50;101357.44;;;20.93;31.30
55187;BME280;55457;52.002;5.464;2023-04-06T05:42:15;101352.03;;;20.93;31.15
55187;BME280;55457;52.002;5.464;2023-04-06T05:44:41;101352.03;;;20.93;31.37
55187;BME280;55457;52.002;5.464;2023-04-06T05:47:06;101352.03;;;20.93;31.12
55187;BME280;55457;52.002;5.464;2023-04-06T05:49:32;101359.13;;;20.94;31.14
55187;BME280;55457;52.002;5.464;2023-04-06T05:51:57;101360.16;;;20.93;31.23
55187;BME280;55457;52.002;5.464;2023-04-06T05:54:22;101361.84;;;20.94;31.24
55187;BME280;55457;52.002;5.464;2023-04-06T05:56:47;101358.50;;;20.92;31.40
55187;BME280;55457;52.002;5.464;2023-04-06T05:59:13;101363.94;;;20.92;31.39
55187;BME280;55457;52.002;5.464;2023-04-06T06:01:38;101358.50;;;20.92;31.22
55187;BME280;55457;52.002;5.464;2023-04-06T06:04:03;101358.50;;;20.92;31.35
55187;BME280;55457;52.002;5.464;2023-04-06T06:06:28;101359.56;;;20.91;31.23
55187;BME280;55457;52.002;5.464;2023-04-06T06:08:57;101356.88;;;20.91;31.38
55187;BME280;55457;52.002;5.464;2023-04-06T06:11:26;101359.56;;;20.91;31.17
55187;BME280;55457;52.002;5.464;2023-04-06T06:13:51;101356.03;;;20.91;31.22
55187;BME280;55457;52.002;5.464;2023-04-06T06:16:17;101362.28;;;20.91;31.24
55187;BME280;55457;52.002;5.464;2023-04-06T06:18:42;101354.16;;;20.91;31.38
55187;BME280;55457;52.002;5.464;2023-04-06T06:21:07;101356.88;;;20.91;31.24
55187;BME280;55457;52.002;5.464;2023-04-06T06:23:32;101359.56;;;20.91;31.38
55187;BME280;55457;52.002;5.464;2023-04-06T06:25:58;101356.88;;;20.91;31.25
55187;BME280;55457;52.002;5.464;2023-04-06T06:28:23;101360.16;;;20.93;31.31
55187;BME280;55457;52.002;5.464;2023-04-06T06:30:50;101364.75;;;20.93;31.25
55187;BME280;55457;52.002;5.464;2023-04-06T06:33:15;101358.50;;;20.92;31.44
55187;BME280;55457;52.002;5.464;2023-04-06T06:35:40;101362.88;;;20.93;31.25
55187;BME280;55457;52.002;5.464;2023-04-06T06:38:05;101361.00;;;20.94;31.38
55187;BME280;55457;52.002;5.464;2023-04-06T06:40:31;101362.88;;;20.93;31.33
55187;BME280;55457;52.002;5.464;2023-04-06T06:42:56;101366.19;;;20.95;31.35
55187;BME280;55457;52.002;5.464;2023-04-06T06:45:21;101369.47;;;20.97;31.53
55187;BME280;55457;52.002;5.464;2023-04-06T06:47:46;101366.75;;;20.97;31.48
55187;BME280;55457;52.002;5.464;2023-04-06T06:50:12;101367.59;;;20.98;31.54
55187;BME280;55457;52.002;5.464;2023-04-06T06:52:37;101366.75;;;20.97;31.53
55187;BME280;55457;52.002;5.464;2023-04-06T06:55:02;101370.53;;;20.96;31.68
55187;BME280;55457;52.002;5.464;2023-04-06T06:57:28;101357.22;;;20.95;31.75
55187;BME280;55457;52.002;5.464;2023-04-06T06:59:53;101357.44;;;20.93;31.77
55187;BME280;55457;52.002;5.464;2023-04-06T07:02:18;101348.97;;;20.90;31.94
55187;BME280;55457;52.002;5.464;2023-04-06T07:04:43;101348.16;;;20.89;32.04
55187;BME280;55457;52.002;5.464;2023-04-06T07:07:08;101344.63;;;20.89;31.93
55187;BME280;55457;52.002;5.464;2023-04-06T07:09:34;101340.50;;;20.86;31.94
55187;BME280;55457;52.002;5.464;2023-04-06T07:12:00;101344.03;;;20.87;32.20
55187;BME280;55457;52.002;5.464;2023-04-06T07:14:25;101339.41;;;20.87;32.34
55187;BME280;55457;52.002;5.464;2023-04-06T07:16:51;101340.50;;;20.86;32.27
55187;BME280;55457;52.002;5.464;2023-04-06T07:19:16;101338.59;;;20.87;32.14
55187;BME280;55457;52.002;5.464;2023-04-06T07:21:41;101339.41;;;20.87;32.49
55187;BME280;55457;52.002;5.464;2023-04-06T07:24:07;101343.19;;;20.86;32.57
55187;BME280;55457;52.002;5.464;2023-04-06T07:26:32;101335.06;;;20.86;32.91
55187;BME280;55457;52.002;5.464;2023-04-06T07:28:57;101331.53;;;20.85;33.00
55187;BME280;55457;52.002;5.464;2023-04-06T07:31:22;101331.78;;;20.84;32.81
55187;BME280;55457;52.002;5.464;2023-04-06T07:33:47;101325.31;;;20.85;32.98
55187;BME280;55457;52.002;5.464;2023-04-06T07:36:13;101332.34;;;20.86;32.89
55187;BME280;55457;52.002;5.464;2023-04-06T07:38:38;101337.78;;;20.86;32.86
55187;BME280;55457;52.002;5.464;2023-04-06T07:41:03;101338.59;;;20.87;32.96
55187;BME280;55457;52.002;5.464;2023-04-06T07:43:29;101339.41;;;20.87;32.90
55187;BME280;55457;52.002;5.464;2023-04-06T07:45:54;101340.25;;;20.88;32.97
55187;BME280;55457;52.002;5.464;2023-04-06T07:48:20;101344.84;;;20.87;32.77
55187;BME280;55457;52.002;5.464;2023-04-06T07:50:45;101341.09;;;20.88;33.02
55187;BME280;55457;52.002;5.464;2023-04-06T07:53:11;101335.69;;;20.88;32.96
55187;BME280;55457;52.002;5.464;2023-04-06T07:55:36;101338.38;;;20.88;33.06
55187;BME280;55457;52.002;5.464;2023-04-06T07:58:01;101328.13;;;20.90;33.08
55187;BME280;55457;52.002;5.464;2023-04-06T08:00:26;101340.59;;;20.91;32.99
55187;BME280;55457;52.002;5.464;2023-04-06T08:02:52;101335.19;;;20.91;32.93
55187;BME280;55457;52.002;5.464;2023-04-06T08:05:17;101336.84;;;20.92;32.77
55187;BME280;55457;52.002;5.464;2023-04-06T08:07:42;101332.03;;;20.94;32.89
55187;BME280;55457;52.002;5.464;2023-04-06T08:10:08;101324.94;;;20.93;32.98
55187;BME280;55457;52.002;5.464;2023-04-06T08:12:34;101335.56;;;20.95;32.80
55187;BME280;55457;52.002;5.464;2023-04-06T08:14:59;101338.03;;;20.96;32.85
55187;BME280;55457;52.002;5.464;2023-04-06T08:17:25;101335.31;;;20.96;32.86
55187;BME280;55457;52.002;5.464;2023-04-06T08:19:52;101338.03;;;20.96;32.77
55187;BME280;55457;52.002;5.464;2023-04-06T08:22:17;101327.75;;;20.98;32.99
55187;BME280;55457;52.002;5.464;2023-04-06T08:24:42;101330.47;;;20.98;32.99
55187;BME280;55457;52.002;5.464;2023-04-06T08:27:08;101333.19;;;20.98;32.83
55187;BME280;55457;52.002;5.464;2023-04-06T08:29:33;101336.50;;;21.00;32.96
55187;BME280;55457;52.002;5.464;2023-04-06T08:31:58;101333.78;;;21.00;33.04
55187;BME280;55457;52.002;5.464;2023-04-06T08:34:23;101340.84;;;21.01;32.92
55187;BME280;55457;52.002;5.464;2023-04-06T08:36:49;101341.91;;;21.00;33.12
55187;BME280;55457;52.002;5.464;2023-04-06T08:39:15;101335.69;;;21.00;32.89
55187;BME280;55457;52.002;5.464;2023-04-06T08:41:43;101338.38;;;21.00;32.92
55187;BME280;55457;52.002;5.464;2023-04-06T08:44:09;101341.91;;;21.00;32.78
55187;BME280;55457;52.002;5.464;2023-04-06T08:46:34;101335.69;;;21.00;32.81
55187;BME280;55457;52.002;5.464;2023-04-06T08:49:01;101336.75;;;20.99;33.03
55187;BME280;55457;52.002;5.464;2023-04-06T08:51:27;101335.88;;;20.98;33.11
55187;BME280;55457;52.002;5.464;2023-04-06T08:53:53;101342.97;;;20.99;33.22
55187;BME280;55457;52.002;5.464;2023-04-06T08:56:20;101337.56;;;20.99;33.13
55187;BME280;55457;52.002;5.464;2023-04-06T08:58:46;101341.91;;;21.00;33.19
55187;BME280;55457;52.002;5.464;2023-04-06T09:01:12;101337.56;;;20.99;33.56
55187;BME280;55457;52.002;5.464;2023-04-06T09:03:39;101341.91;;;21.00;33.79
55187;BME280;55457;52.002;5.464;2023-04-06T09:06:05;101349.22;;;21.00;33.79
55187;BME280;55457;52.002;5.464;2023-04-06T09:08:32;101348.41;;;20.99;33.58
55187;BME280;55457;52.002;5.464;2023-04-06T09:10:57;101345.09;;;20.97;33.73
55187;BME280;55457;52.002;5.464;2023-04-06T09:13:22;101347.78;;;20.97;33.77
55187;BME280;55457;52.002;5.464;2023-04-06T09:15:57;101348.03;;;20.96;33.51
55187;BME280;55457;52.002;5.464;2023-04-06T09:18:32;101341.78;;;20.95;33.57
55187;BME280;55457;52.002;5.464;2023-04-06T09:21:01;101347.22;;;20.95;33.65
55187;BME280;55457;52.002;5.464;2023-04-06T09:23:27;101349.31;;;20.93;33.60
55187;BME280;55457;52.002;5.464;2023-04-06T09:26:04;101346.59;;;20.93;33.69
55187;BME280;55457;52.002;5.464;2023-04-06T09:28:29;101354.72;;;20.93;33.46
55187;BME280;55457;52.002;5.464;2023-04-06T09:30:54;101350.16;;;20.94;33.59
55187;BME280;55457;52.002;5.464;2023-04-06T09:33:23;101354.53;;;20.95;33.52
55187;BME280;55457;52.002;5.464;2023-04-06T09:35:51;101346.41;;;20.95;33.44
55187;BME280;55457;52.002;5.464;2023-04-06T09:38:16;101347.22;;;20.95;33.48
55187;BME280;55457;52.002;5.464;2023-04-06T09:40:49;101340.97;;;20.95;33.45
55187;BME280;55457;52.002;5.464;2023-04-06T09:43:22;101350.50;;;20.97;33.59
55187;BME280;55457;52.002;5.464;2023-04-06T09:45:48;101348.63;;;20.98;33.36
55187;BME280;55457;52.002;5.464;2023-04-06T09:48:13;101347.56;;;20.99;33.51
55187;BME280;55457;52.002;5.464;2023-04-06T09:50:38;101340.28;;;20.99;33.58
55187;BME280;55457;52.002;5.464;2023-04-06T09:53:05;101344.63;;;21.00;33.44
55187;BME280;55457;52.002;5.464;2023-04-06T09:55:36;101335.69;;;21.00;33.44
55187;BME280;55457;52.002;5.464;2023-04-06T09:58:05;101339.22;;;21.00;33.63
55187;BME280;55457;52.002;5.464;2023-04-06T10:00:32;101338.97;;;21.02;33.57
55187;BME280;55457;52.002;5.464;2023-04-06T10:05:32;101336.50;;;21.00;33.58
55187;BME280;55457;52.002;5.464;2023-04-06T10:07:59;101337.06;;;21.02;33.51
55187;BME280;55457;52.002;5.464;2023-04-06T10:10:27;101342.50;;;21.02;33.42
55187;BME280;55457;52.002;5.464;2023-04-06T10:12:53;101347.09;;;21.02;33.58
55187;BME280;55457;52.002;5.464;2023-04-06T10:15:18;101352.50;;;21.02;33.54
55187;BME280;55457;52.002;5.464;2023-04-06T10:17:43;101347.09;;;21.02;33.50
55187;BME280;55457;52.002;5.464;2023-04-06T10:22:45;101341.91;;;21.00;33.83
55187;BME280;55457;52.002;5.464;2023-04-06T10:25:25;101350.03;;;21.00;33.69
55187;BME280;55457;52.002;5.464;2023-04-06T10:27:58;101340.28;;;20.99;33.84
55187;BME280;55457;52.002;5.464;2023-04-06T10:30:23;101345.69;;;20.99;34.02
55187;BME280;55457;52.002;5.464;2023-04-06T10:32:49;101345.09;;;20.97;33.96
55187;BME280;55457;52.002;5.464;2023-04-06T10:35:15;101344.88;;;20.99;33.92
55187;BME280;55457;52.002;5.464;2023-04-06T10:38:13;101346.72;;;20.98;34.26
55187;BME280;55457;52.002;5.464;2023-04-06T10:40:34;101344.25;;;20.97;34.21
55187;BME280;55457;52.002;5.464;2023-04-06T10:43:07;101347.78;;;20.97;34.11
55187;BME280;55457;52.002;5.464;2023-04-06T10:45:32;101341.31;;;20.98;34.31
55187;BME280;55457;52.002;5.464;2023-04-06T10:47:58;101346.72;;;20.98;34.32
55187;BME280;55457;52.002;5.464;2023-04-06T10:50:23;101336.75;;;20.99;34.37
55187;BME280;55457;52.002;5.464;2023-04-06T10:52:58;101339.44;;;20.99;34.14
55187;BME280;55457;52.002;5.464;2023-04-06T10:55:23;101328.81;;;20.97;34.47
55187;BME280;55457;52.002;5.464;2023-04-06T10:57:50;101335.06;;;20.98;34.27
55187;BME280;55457;52.002;5.464;2023-04-06T11:00:16;101333.19;;;20.98;34.27
55187;BME280;55457;52.002;5.464;2023-04-06T11:02:41;101325.91;;;20.99;34.60
55187;BME280;55457;52.002;5.464;2023-04-06T11:05:07;101326.94;;;20.98;34.51
55187;BME280;55457;52.002;5.464;2023-04-06T11:07:32;101320.69;;;20.97;34.52
55187;BME280;55457;52.002;5.464;2023-04-06T11:09:58;101323.41;;;20.97;34.61
55187;BME280;55457;52.002;5.464;2023-04-06T11:12:27;101320.69;;;20.97;34.46
55187;BME280;55457;52.002;5.464;2023-04-06T11:14:56;101317.16;;;20.97;34.64
55187;BME280;55457;52.002;5.464;2023-04-06T11:17:26;101304.44;;;20.97;34.68
55187;BME280;55457;52.002;5.464;2023-04-06T11:19:52;101313.38;;;20.98;34.50
55187;BME280;55457;52.002;5.464;2023-04-06T11:22:17;101301.72;;;20.97;34.65
55187;BME280;55457;52.002;5.464;2023-04-06T11:24:42;101301.72;;;20.97;34.71
55187;BME280;55457;52.002;5.464;2023-04-06T11:27:07;101303.38;;;20.98;34.59
55187;BME280;55457;52.002;5.464;2023-04-06T11:29:33;101297.97;;;20.98;34.75
55187;BME280;55457;52.002;5.464;2023-04-06T11:32:05;101297.97;;;20.98;34.68
55187;BME280;55457;52.002;5.464;2023-04-06T11:34:35;101287.13;;;20.98;34.51
55187;BME280;55457;52.002;5.464;2023-04-06T11:37:02;101289.81;;;20.98;34.71
55187;BME280;55457;52.002;5.464;2023-04-06T11:39:30;101287.13;;;20.98;34.47
55187;BME280;55457;52.002;5.464;2023-04-06T11:41:59;101281.69;;;20.98;34.72
55187;BME280;55457;52.002;5.464;2023-04-06T11:44:29;101286.28;;;20.98;34.59
55187;BME280;55457;52.002;5.464;2023-04-06T11:46:56;101277.34;;;20.97;34.47
55187;BME280;55457;52.002;5.464;2023-04-06T11:49:21;101274.63;;;20.97;34.62
55187;BME280;55457;52.002;5.464;2023-04-06T11:51:47;101273.00;;;20.96;34.72
55187;BME280;55457;52.002;5.464;2023-04-06T11:54:12;101275.69;;;20.96;34.65
55187;BME280;55457;52.002;5.464;2023-04-06T11:56:38;101265.94;;;20.95;34.49
55187;BME280;55457;52.002;5.464;2023-04-06T11:59:03;101269.72;;;20.94;34.54
55187;BME280;55457;52.002;5.464;2023-04-06T12:01:28;101266.19;;;20.94;34.50
55187;BME280;55457;52.002;5.464;2023-04-06T12:03:53;101270.53;;;20.95;34.41
55187;BME280;55457;52.002;5.464;2023-04-06T12:06:19;101262.63;;;20.93;34.55
55187;BME280;55457;52.002;5.464;2023-04-06T12:08:44;101260.16;;;20.92;34.60
55187;BME280;55457;52.002;5.464;2023-04-06T12:11:10;101262.03;;;20.91;34.72
55187;BME280;55457;52.002;5.464;2023-04-06T12:13:35;101262.63;;;20.93;34.56
55187;BME280;55457;52.002;5.464;2023-04-06T12:16:00;101260.97;;;20.92;34.62
55187;BME280;55457;52.002;5.464;2023-04-06T12:18:25;101253.66;;;20.93;34.82
55187;BME280;55457;52.002;5.464;2023-04-06T12:20:51;101259.34;;;20.91;34.68
55187;BME280;55457;52.002;5.464;2023-04-06T12:23:16;101246.84;;;20.90;34.58
55187;BME280;55457;52.002;5.464;2023-04-06T12:25:42;101251.19;;;20.91;34.81
55187;BME280;55457;52.002;5.464;2023-04-06T12:28:07;101248.50;;;20.91;34.76
55187;BME280;55457;52.002;5.464;2023-04-06T12:30:32;101254.50;;;20.93;34.62
55187;BME280;55457;52.002;5.464;2023-04-06T12:32:57;101248.50;;;20.91;34.76
55187;BME280;55457;52.002;5.464;2023-04-06T12:35:23;101248.50;;;20.91;34.76
55187;BME280;55457;52.002;5.464;2023-04-06T12:37:48;101236.25;;;20.89;34.64
55187;BME280;55457;52.002;5.464;2023-04-06T12:40:13;101249.56;;;20.90;34.79
55187;BME280;55457;52.002;5.464;2023-04-06T12:42:39;101245.22;;;20.89;34.77
55187;BME280;55457;52.002;5.464;2023-04-06T12:45:06;101247.31;;;20.87;34.89
55187;BME280;55457;52.002;5.464;2023-04-06T12:47:31;101243.56;;;20.88;34.64